• Join FlightAware (Why Join?)
  • Login
  • US Flag 
08:33AM EDT


 

Airport Tracker/Info


-or-


 

Live Flight TrackerFlight Track Log ✈ SIA21 ✈ 03-Nov-2013 ✈ KEWR - WSSS / SIN

Flight Track Log - Related Links

Times and Time Zones

All times are in EST time to prevent confusion due to time zone crossing. See the SIA21 flight status page for this flight to view local times or setup timezone preferences in your user account.

Time Position Orientation Groundspeed Altitude Reporting Facility
EST Latitude Longitude Course Direction KTS MPH feet Rate Location/Type
11:02PM 40.7200 -74.1440 52° Northeast 159 183 1,000  Level FlightAware
11:02PM 40.7395 -74.1237 24° Northeast 172 198 1,800 1,200 Climbing FlightAware ADS-B
11:03PM 40.7522 -74.1182 18° North 187 215 2,000 780 Climbing FlightAware ADS-B
11:03PM 40.7657 -74.1125 18° North 208 239 2,200 960 Climbing FlightAware ADS-B
11:03PM 40.7809 -74.1065 17° North 230 265 2,500 1,740 Climbing FlightAware ADS-B
11:04PM 40.8141 -74.0933 17° North 246 283 3,600 2,040 Climbing FlightAware ADS-B
11:04PM 40.8314 -74.0867 16° North 257 296 4,100 2,040 Climbing FlightAware ADS-B
11:04PM 40.8501 -74.0799 15° North 263 303 4,700 2,220 Climbing FlightAware ADS-B
11:04PM 40.8695 -74.0728 15° North 268 308 5,300 2,280 Climbing FlightAware ADS-B
11:05PM 40.8972 -74.0620 16° North 277 319 6,200 2,280 Climbing FlightAware ADS-B
11:05PM 40.9125 -74.0553 18° North 277 319 6,700 2,580 Climbing FlightAware ADS-B
11:05PM 40.9163 -74.0532 23° Northeast 277 319 6,900 3,000 Climbing FlightAware ADS-B
11:05PM 40.9266 -74.0454 30° Northeast 279 321 7,300 2,460 Climbing FlightAware ADS-B
11:05PM 40.9342 -74.0363 42° Northeast 281 323 7,600 2,400 Climbing FlightAware ADS-B
11:06PM 40.9399 -74.0266 52° Northeast 285 328 7,900 2,400 Climbing FlightAware ADS-B
11:06PM 40.9509 -74.0049 56° Northeast 285 328 8,500 1,680 Climbing FlightAware ADS-B
11:06PM 40.9739 -73.9604 56° Northeast 288 331 9,200 1,260 Climbing FlightAware ADS-B
11:07PM 40.9865 -73.9355 56° Northeast 320 368 9,500 1,320 Climbing FlightAware ADS-B
11:07PM 40.9993 -73.9101 56° Northeast 328 377 9,900 1,260 Climbing FlightAware ADS-B
11:07PM 41.0268 -73.8550 56° Northeast 356 410 10,500 1,440 Climbing FlightAware ADS-B
11:08PM 41.0555 -73.7976 56° Northeast 370 426 11,400 1,920 Climbing FlightAware ADS-B
11:09PM 41.0980 -73.7110 57° Northeast 375 432 13,100 2,040 Climbing FlightAware
11:10PM 41.1593 -73.5894 56° Northeast 388 447 15,100 1,980 Climbing FlightAware ADS-B (KSNC)
11:10PM 41.1936 -73.5201 57° Northeast 403 464 16,200 1,740 Climbing FlightAware ADS-B (KSNC)
11:11PM 41.2267 -73.4532 57° Northeast 407 468 17,100 1,800 Climbing FlightAware ADS-B (KSNC)
11:11PM 41.2604 -73.3848 57° Northeast 411 473 18,200 1,800 Climbing FlightAware ADS-B (KSNC)
11:12PM 41.2841 -73.3369 57° Northeast 417 480 19,000 1,560 Climbing FlightAware ADS-B (KSNC)
11:12PM 41.3220 -73.2656 55° Northeast 422 486 20,100 1,500 Climbing FlightAware ADS-B (KSNC)
11:13PM 41.3784 -73.1646 53° Northeast 427 491 20,900 1,560 Climbing FlightAware ADS-B (KSNC)
11:14PM 41.4150 -73.0970 54° Northeast 430 495 21,800 1,740 Climbing FlightAware
11:14PM 41.4342 -73.0625 53° Northeast 431 496 22,300 1,500 Climbing FlightAware ADS-B (KSNC)
11:14PM 41.4722 -72.9925 54° Northeast 436 502 23,000 1,500 Climbing FlightAware ADS-B (KSNC)
11:15PM 41.5229 -72.8987 54° Northeast 437 503 24,200 1,260 Climbing FlightAware ADS-B (KSNC)
11:16PM 41.5705 -72.8114 54° Northeast 445 512 24,800 1,080 Climbing FlightAware ADS-B (KSNC)
11:16PM 41.6144 -72.7406 50° Northeast 443 510 25,600 1,260 Climbing FlightAware ADS-B (KSNC)
11:17PM 41.6515 -72.6817 50° Northeast 448 516 26,200 1,020 Climbing FlightAware ADS-B (KSNC)
11:18PM 41.7148 -72.5790 50° Northeast 458 527 26,900 840 Climbing FlightAware ADS-B (KSNC)
11:18PM 41.7568 -72.5101 51° Northeast 464 534 27,300 900 Climbing FlightAware ADS-B (KSNC)
11:19PM 41.7953 -72.4458 51° Northeast 471 542 27,800 1,260 Climbing FlightAware ADS-B (KSNC)
11:19PM 41.8302 -72.3618 61° Northeast 485 558 28,600 1,080 Climbing FlightAware ADS-B (KSNC)
11:20PM 41.8616 -72.2734 64° Northeast 491 565 29,000 720 Climbing FlightAware ADS-B (KSNC)
11:20PM 41.8922 -72.1888 64° Northeast 496 571 29,400 600 Climbing FlightAware ADS-B (KSNC)
11:21PM 41.9263 -72.0978 63° Northeast 500 575 29,700 540 Climbing FlightAware ADS-B
11:21PM 41.9612 -72.0078 62° Northeast 504 580 30,000 660 Climbing FlightAware ADS-B
11:22PM 41.9998 -71.9341 55° Northeast 494 568 30,400 840 Climbing FlightAware ADS-B
11:22PM 42.0262 -71.8943 48° Northeast 494 568 30,700 600 Climbing FlightAware ADS-B (KOWD)
11:22PM 42.0555 -71.8475 50° Northeast 502 578 30,800 300 Climbing FlightAware ADS-B (KSNC)
11:23PM 42.1051 -71.7627 52° Northeast 512 589 31,000 780 Climbing FlightAware ADS-B (KOWD)
11:23PM 42.1535 -71.6806 51° Northeast 504 580 31,700 1,260 Climbing FlightAware ADS-B
11:24PM 42.1559 -71.6767 51° Northeast 509 586 31,800 600 Climbing FlightAware ADS-B
11:24PM 42.2123 -71.5822 51° Northeast 512 589 32,100 600 Climbing FlightAware ADS-B
11:25PM 42.2573 -71.5066 51° Northeast 512 589 32,500 660 Climbing FlightAware ADS-B
11:25PM 42.3015 -71.4323 51° Northeast 514 592 32,800 480 Climbing FlightAware ADS-B
11:26PM 42.3462 -71.3570 51° Northeast 519 597 33,000 180 Climbing FlightAware ADS-B
11:26PM 42.3915 -71.2806 51° Northeast 522 601 33,000  Level FlightAware ADS-B
11:27PM 42.4297 -71.2159 51° Northeast 531 611 33,000  Level FlightAware ADS-B (KOWD)
11:27PM 42.4737 -71.1412 51° Northeast 535 616 33,000  Level FlightAware ADS-B (KOWD)
11:28PM 42.5023 -71.0925 51° Northeast 535 616 33,000  Level FlightAware ADS-B (KOWD)
11:28PM 42.5858 -70.9497 51° Northeast 532 612 33,000  Level FlightAware ADS-B (KBOS)
11:29PM 42.6328 -70.8693 52° Northeast 532 612 33,000  Level FlightAware ADS-B (KOWD)
11:29PM 42.6812 -70.7861 52° Northeast 527 606 33,000  Level FlightAware ADS-B
11:30PM 42.7303 -70.7014 52° Northeast 529 609 33,000  Level FlightAware ADS-B (KOWD)
11:30PM 42.7564 -70.6564 52° Northeast 525 604 33,000  Level FlightAware ADS-B
11:30PM 42.7788 -70.6177 52° Northeast 526 605 33,000  Level FlightAware ADS-B
11:31PM 42.7951 -70.5894 52° Northeast 526 605 33,000  Level FlightAware ADS-B
11:31PM 42.8193 -70.5474 52° Northeast 526 605 33,000  Level FlightAware ADS-B (KOWD)
11:31PM 42.8227 -70.5416 52° Northeast 532 612 33,000  Level FlightAware ADS-B (KOWD)
11:31PM 42.8641 -70.4696 52° Northeast 526 605 33,000  Level FlightAware ADS-B
11:31PM 42.8747 -70.4512 52° Northeast 527 606 33,000  Level FlightAware ADS-B
11:32PM 42.8898 -70.4249 52° Northeast 526 605 33,000  Level FlightAware ADS-B
11:32PM 42.9143 -70.3822 52° Northeast 527 606 33,000  Level FlightAware ADS-B
11:32PM 42.9340 -70.3479 52° Northeast 527 606 33,000  Level FlightAware ADS-B
11:33PM 42.9851 -70.2585 52° Northeast 533 613 33,000  Level FlightAware ADS-B (KBOS)
11:33PM 43.0087 -70.2171 52° Northeast 530 610 33,000  Level FlightAware ADS-B
11:33PM 43.0594 -70.1282 52° Northeast 535 616 33,000  Level FlightAware ADS-B (KBOS)
11:34PM 43.1150 -70.0303 52° Northeast 535 616 33,000  Level FlightAware ADS-B (KBOS)
11:34PM 43.1298 -70.0041 52° Northeast 530 610 33,000  Level FlightAware ADS-B
11:35PM 43.1753 -69.9236 52° Northeast 538 619 33,000  Level FlightAware ADS-B (KBOS)
11:35PM 43.2284 -69.8294 52° Northeast 538 619 33,000  Level FlightAware ADS-B (KBOS)
11:36PM 43.2647 -69.7648 52° Northeast 538 619 33,000  Level FlightAware ADS-B (CYQI)
11:36PM 43.3065 -69.6901 52° Northeast 540 621 33,000  Level FlightAware ADS-B (KBOS)
11:36PM 43.3322 -69.6444 52° Northeast 530 610 33,000  Level FlightAware ADS-B (CYQI)
11:37PM 43.3721 -69.5727 53° Northeast 525 604 33,000  Level FlightAware ADS-B
11:37PM 43.4212 -69.4846 52° Northeast 517 595 33,000  Level FlightAware ADS-B
11:38PM 43.4734 -69.3908 53° Northeast 519 597 33,000  Level FlightAware ADS-B (CYQI)
11:39PM 43.5165 -69.3129 53° Northeast 521 600 33,000  Level FlightAware ADS-B (KBOS)
11:39PM 43.5646 -69.2258 53° Northeast 528 608 33,000  Level FlightAware ADS-B
11:40PM 43.6123 -69.1391 53° Northeast 532 612 33,000  Level FlightAware ADS-B
11:40PM 43.6558 -69.0599 53° Northeast 530 610 33,000  Level FlightAware ADS-B
11:41PM 43.7002 -68.9789 53° Northeast 532 612 33,000  Level FlightAware ADS-B
11:41PM 43.7455 -68.8959 53° Northeast 535 616 33,000  Level FlightAware ADS-B
11:42PM 43.8241 -68.7514 53° Northeast 539 620 33,000  Level FlightAware ADS-B (CYQI)
11:42PM 43.8630 -68.6796 53° Northeast 541 623 33,000  Level FlightAware ADS-B
11:43PM 43.9077 -68.5969 53° Northeast 543 625 33,000  Level FlightAware ADS-B
11:43PM 43.9546 -68.5099 53° Northeast 544 626 33,000  Level FlightAware ADS-B
11:44PM 44.0090 -68.4087 53° Northeast 544 626 33,000  Level FlightAware ADS-B (CYQI)
11:45PM 44.0701 -68.2945 53° Northeast 545 627 33,000  Level FlightAware ADS-B (CYQI)
11:46PM 44.1670 -68.1120 53° Northeast 544 626 33,000  Level FlightAware
11:46PM 44.2007 -68.0490 53° Northeast 547 629 33,000  Level FlightAware ADS-B (CYQI)
11:47PM 44.2477 -67.9599 54° Northeast 549 632 33,000  Level FlightAware ADS-B (CYQI)
11:47PM 44.2936 -67.8729 54° Northeast 548 631 33,000  Level FlightAware ADS-B (CYQI)
11:48PM 44.3546 -67.7567 54° Northeast 548 631 33,000  Level FlightAware ADS-B (CYQI)
11:48PM 44.4134 -67.6443 54° Northeast 548 631 33,000  Level FlightAware ADS-B (CYQI)
11:49PM 44.4766 -67.5230 54° Northeast 548 631 33,000  Level FlightAware ADS-B (CYQI)
11:50PM 44.5213 -67.4370 54° Northeast 549 632 33,000  Level FlightAware ADS-B (CYQI)
11:50PM 44.5666 -67.3495 54° Northeast 549 632 33,000  Level FlightAware ADS-B (CYQI)
11:51PM 44.6097 -67.2660 54° Northeast 550 633 33,000  Level FlightAware ADS-B (CYQI)
11:51PM 44.6699 -67.1488 54° Northeast 549 632 33,000  Level FlightAware ADS-B (CYQI)
11:52PM 44.7134 -67.0638 54° Northeast 550 633 33,000  Level FlightAware ADS-B (CYQI)
11:52PM 44.7641 -66.9645 54° Northeast 551 634 33,000  Level FlightAware ADS-B (CYQI)
11:53PM 44.8116 -66.8713 54° Northeast 554 638 33,000  Level FlightAware ADS-B (CYQI)
11:54PM 44.8886 -66.7194 54° Northeast 555 639 33,000  Level FlightAware ADS-B (CYQI)
11:54PM 44.9386 -66.6204 54° Northeast 555 639 33,000  Level FlightAware ADS-B (CYQI)
11:55PM 44.9837 -66.5307 55° Northeast 556 640 33,000  Level FlightAware ADS-B (CYQI)
11:56PM 45.0413 -66.4158 55° Northeast 556 640 33,000  Level FlightAware ADS-B (CYQI)
11:56PM 45.0891 -66.3202 55° Northeast 557 641 33,000  Level FlightAware ADS-B (CYQI)
11:57PM 45.1356 -66.2268 55° Northeast 559 643 33,000  Level FlightAware ADS-B (CYQI)
11:57PM 45.1760 -66.1460 55° Northeast 559 643 33,000  Level FlightAware
11:57PM 45.2106 -66.0754 55° Northeast 560 644 33,000  Level FlightAware ADS-B (CYQI)
11:58PM 45.2693 -65.9564 55° Northeast 561 646 33,000  Level FlightAware ADS-B (CYQI)
11:59PM 45.3126 -65.8683 55° Northeast 563 648 33,000  Level FlightAware ADS-B (CYQI)
11:59PM 45.3750 -65.7410 55° Northeast 563 648 33,000  Level FlightAware
12:00AM 45.3949 -65.7003 55° Northeast 563 648 33,000  Level FlightAware ADS-B (CYQI)
12:00AM 45.4411 -65.6054 55° Northeast 564 649 33,000  Level FlightAware ADS-B (CYQI)
12:01AM 45.5040 -65.4760 55° Northeast 564 649 33,000  Level FlightAware
12:02AM 45.5760 -65.3270 55° Northeast 565 650 33,000  Level FlightAware
12:02AM 45.6013 -65.2739 56° Northeast 567 652 33,000  Level FlightAware ADS-B (CYQI)
12:03AM 45.6584 -65.1549 56° Northeast 567 652 33,000  Level FlightAware ADS-B (CYQI)
12:03AM 45.7360 -64.9920 56° Northeast 568 654 33,000  Level FlightAware
12:04AM 45.7439 -64.9754 56° Northeast 569 655 33,000  Level FlightAware ADS-B (CYQI)
12:04AM 45.8180 -64.8180 56° Northeast 571 657 33,000  Level FlightAware
12:05AM 45.8492 -64.7533 55° Northeast 572 658 33,000  Level FlightAware ADS-B (CYQI)
12:05AM 45.8950 -64.6559 56° Northeast 573 659 33,000  Level FlightAware ADS-B (CYQI)
12:06AM 45.9760 -64.4830 56° Northeast 573 659 33,000  Level FlightAware
12:07AM 46.0560 -64.3120 56° Northeast 571 657 33,000  Level FlightAware
12:08AM 46.1260 -64.1600 56° Northeast 572 658 33,000  Level FlightAware
12:09AM 46.1980 -64.0040 56° Northeast 573 659 33,000  Level FlightAware
12:09AM 46.2500 -63.8910 56° Northeast 574 661 33,000  Level FlightAware
12:10AM 46.2990 -63.7820 57° Northeast 575 662 33,000  Level FlightAware
12:11AM 46.3620 -63.6440 56° Northeast 577 664 33,000  Level FlightAware
12:11AM 46.4280 -63.4990 57° Northeast 581 669 33,000  Level FlightAware
12:12AM 46.5030 -63.3300 57° Northeast 581 669 33,000  Level FlightAware
12:13AM 46.5700 -63.1810 57° Northeast 582 670 33,000  Level FlightAware
12:13AM 46.6210 -63.0660 57° Northeast 582 670 33,000  Level FlightAware
12:14AM 46.7030 -62.8830 57° Northeast 583 671 33,000  Level FlightAware
12:15AM 46.7440 -62.7880 58° Northeast 585 673 33,000  Level FlightAware
12:16AM 46.7980 -62.6650 57° Northeast 587 676 33,000  Level FlightAware
12:16AM 46.8600 -62.5230 57° Northeast 588 677 33,000  Level FlightAware
12:17AM 46.9140 -62.4000 57° Northeast 590 679 33,000  Level FlightAware
12:18AM 46.9830 -62.2390 58° Northeast 589 678 33,000  Level FlightAware
12:19AM 47.0640 -62.0500 58° Northeast 590 679 33,000  Level FlightAware
12:19AM 47.1120 -61.9390 58° Northeast 591 680 33,000  Level FlightAware
12:20AM 47.1970 -61.7380 58° Northeast 596 686 33,000  Level FlightAware
12:21AM 47.2700 -61.5660 58° Northeast 600 690 33,000  Level FlightAware
12:22AM 47.3260 -61.4310 58° Northeast 598 688 33,000  Level FlightAware
12:22AM 47.3930 -61.2720 58° Northeast 596 686 33,000  Level FlightAware
12:23AM 47.4620 -61.1060 58° Northeast 595 685 33,000  Level FlightAware
12:24AM 47.5230 -60.9570 59° Northeast 598 688 33,000  Level FlightAware
12:25AM 47.5840 -60.8070 59° Northeast 597 687 33,000  Level FlightAware
12:25AM 47.6590 -60.6250 58° Northeast 599 689 33,000  Level FlightAware
12:26AM 47.7310 -60.4480 59° Northeast 604 695 33,000  Level FlightAware
12:27AM 47.8100 -60.2500 59° Northeast 603 694 33,000  Level FlightAware
12:28AM 47.8560 -60.1350 59° Northeast 603 694 33,000  Level FlightAware
12:29AM 47.9150 -59.9890 59° Northeast 603 694 33,000  Level FlightAware
12:30AM 48.0350 -59.6850 59° Northeast 610 702 33,000  Level FlightAware
12:31AM 48.1020 -59.5100 60° Northeast 605 696 33,000  Level FlightAware
12:31AM 48.1670 -59.3440 60° Northeast 612 704 33,000  Level FlightAware
12:32AM 48.2120 -59.2270 60° Northeast 615 708 33,000  Level FlightAware
12:33AM 48.2680 -59.0830 60° Northeast 618 711 33,000  Level FlightAware
12:33AM 48.3020 -58.9930 60° Northeast 620 713 33,000  Level FlightAware
12:34AM 48.3750 -58.8010 60° Northeast 623 717 33,000  Level FlightAware
12:35AM 48.4530 -58.5950 60° Northeast 623 717 33,000  Level FlightAware
12:36AM 48.5400 -58.3620 61° Northeast 625 719 33,000  Level FlightAware
12:36AM 48.5810 -58.2510 61° Northeast 623 717 33,000  Level FlightAware
12:37AM 48.6550 -58.0420 62° Northeast 624 718 33,000  Level FlightAware
12:38AM 48.7330 -57.8100 63° Northeast 625 719 33,000  Level FlightAware
12:39AM 48.8110 -57.5780 63° Northeast 627 722 33,000  Level FlightAware
12:40AM 48.8470 -57.4730 62° Northeast 628 723 33,000  Level FlightAware
12:40AM 48.9110 -57.2800 63° Northeast 624 718 33,000  Level FlightAware
12:41AM 48.9440 -57.1810 63° Northeast 621 715 33,000 300 Level FlightAware
12:42AM 49.0200 -56.9480 63° Northeast 625 719 33,500 480 Climbing FlightAware
12:42AM 49.0600 -56.8270 63° Northeast 625 719 33,800 300 Climbing FlightAware
12:43AM 49.1300 -56.6100 64° Northeast 623 717 34,000 60 Climbing FlightAware
12:44AM 49.2000 -56.3940 64° Northeast 625 719 34,000  Level FlightAware
12:45AM 49.2570 -56.2160 64° Northeast 626 720 34,000  Level FlightAware
12:46AM 49.3200 -56.0170 64° Northeast 626 720 34,000  Level FlightAware
12:46AM 49.3770 -55.8370 64° Northeast 628 723 34,000  Level FlightAware
12:47AM 49.4450 -55.6170 65° Northeast 628 723 34,000  Level FlightAware
12:48AM 49.5080 -55.4160 64° Northeast 629 724 34,000  Level FlightAware
12:49AM 49.5390 -55.3130 65° Northeast 629 724 34,000  Level FlightAware
12:49AM 49.5880 -55.1530 65° Northeast 629 724 34,000  Level FlightAware
12:50AM 49.6370 -54.9910 65° Northeast 631 726 34,000  Level FlightAware
12:51AM 49.6750 -54.8660 65° Northeast 630 725 34,000  Level FlightAware
12:51AM 49.7420 -54.6420 65° Northeast 633 728 34,000  Level FlightAware
12:52AM 49.8030 -54.4380 65° Northeast 635 731 34,000  Level FlightAware
12:53AM 49.8700 -54.2110 65° Northeast 633 728 34,000  Level FlightAware
12:54AM 49.9060 -54.0860 66° East 632 727 34,000  Level FlightAware
12:54AM 49.9480 -53.9440 65° Northeast 631 726 34,000  Level FlightAware
12:55AM 50.0110 -53.7260 66° East 631 726 34,000  Level FlightAware
12:56AM 50.0730 -53.5070 66° East 633 728 34,000  Level FlightAware
12:57AM 50.1320 -53.3000 66° East 630 725 34,000  Level FlightAware
12:57AM 50.1560 -53.2140 66° East 630 725 34,000  Level FlightAware
12:58AM 50.2020 -53.0510 66° East 631 726 34,000  Level FlightAware
12:59AM 50.2760 -52.7830 67° East 628 723 34,000  Level FlightAware
01:00AM 50.3360 -52.5670 66° East 629 724 34,000  Level FlightAware
01:01AM 50.3900 -52.3680 67° East 630 725 34,000  Level FlightAware
01:02AM 50.4490 -52.1490 67° East 632 727 34,000  Level FlightAware
01:02AM 50.5120 -51.9140 67° East 634 730 34,000  Level FlightAware
01:03AM 50.5760 -51.6730 67° East 634 730 34,000  Level FlightAware
01:04AM 50.6000 -51.5860 66° East 634 730 34,000  Level FlightAware
01:05AM 50.6470 -51.4090 67° East 634 730 34,000  Level FlightAware
01:05AM 50.6940 -51.2350 67° East 634 730 34,000  Level FlightAware
01:06AM 50.7540 -51.0140 67° East 634 730 34,000  Level FlightAware
01:07AM 50.8130 -50.7930 67° East 634 730 34,000  Level FlightAware
01:08AM 50.8480 -50.6620 67° East 634 730 34,000  Level FlightAware
01:09AM 50.8840 -50.5270 67° East 634 730 34,000  Level FlightAware
01:10AM 50.9430 -50.3050 67° East 634 730 34,000  Level FlightAware
01:11AM 50.9900 -50.1300 67° East 634 730 34,000  Level FlightAware
01:11AM 51.0260 -49.9950 67° East 634 730 34,000  Level FlightAware
01:12AM 51.0500 -49.9040 67° East 634 730 34,000  Level FlightAware
01:12AM 51.0850 -49.7730 67° East 634 730 34,000  Level FlightAware
01:13AM 51.1100 -49.6810 67° East 634 730 34,000  Level FlightAware
01:21AM 52.0868 -48.6871 32° Northeast  Level Estimated
01:21AM 51.0000 -50.0000 77° East 629 724 34,000  Level ETMS Enhanced Traffic Management System
01:22AM 52.2093 -48.5587 33° Northeast  Level Estimated
01:23AM 52.3317 -48.4297 33° Northeast  Level Estimated
01:24AM 52.4540 -48.2999 33° Northeast  Level Estimated
01:25AM 52.5761 -48.1694 33° Northeast  Level Estimated
01:26AM 52.6980 -48.0381 33° Northeast  Level Estimated
01:27AM 51.5782 -45.3330 81° East 629 724 34,000  Level FlightAware Transoceanic
01:28AM 51.6064 -45.0550 81° East 629 724 34,000  Level FlightAware Transoceanic
01:29AM 51.6339 -44.7767 81° East 629 724 34,000  Level FlightAware Transoceanic
01:30AM 51.6608 -44.4980 81° East 629 724 34,000  Level FlightAware Transoceanic
01:31AM 51.6870 -44.2190 81° East 629 724 34,000  Level FlightAware Transoceanic
01:32AM 51.7125 -43.9397 82° East 629 724 34,000  Level FlightAware Transoceanic
01:33AM 51.7374 -43.6600 82° East 629 724 34,000  Level FlightAware Transoceanic
01:34AM 51.7616 -43.3801 82° East 629 724 34,000  Level FlightAware Transoceanic
01:35AM 51.7852 -43.0999 82° East 629 724 34,000  Level FlightAware Transoceanic
01:36AM 51.8081 -42.8193 83° East 629 724 34,000  Level FlightAware Transoceanic
01:37AM 51.8303 -42.5385 83° East 629 724 34,000  Level FlightAware Transoceanic
01:38AM 51.8518 -42.2575 83° East 629 724 34,000  Level FlightAware Transoceanic
01:39AM 51.8727 -41.9761 83° East 629 724 34,000  Level FlightAware Transoceanic
01:40AM 51.8929 -41.6945 83° East 629 724 34,000  Level FlightAware Transoceanic
01:41AM 51.9124 -41.4127 84° East 629 724 34,000  Level FlightAware Transoceanic
01:42AM 51.9313 -41.1306 84° East 629 724 34,000  Level FlightAware Transoceanic
01:43AM 51.9495 -40.8483 84° East 629 724 34,000  Level FlightAware Transoceanic
01:44AM 51.9670 -40.5657 84° East 629 724 34,000  Level FlightAware Transoceanic
01:45AM 51.9838 -40.2830 85° East 629 724 34,000  Level FlightAware Transoceanic
01:46AM 52.0924 -40.1251 42° Northeast  Level Estimated
01:47AM 52.2007 -39.9664 42° Northeast  Level Estimated
01:48AM 52.3089 -39.8070 42° Northeast  Level Estimated
01:49AM 52.4168 -39.6468 42° Northeast  Level Estimated
01:50AM 52.5245 -39.4858 42° Northeast  Level Estimated
01:51AM 52.6319 -39.3240 42° Northeast  Level Estimated
01:52AM 52.7392 -39.1614 43° Northeast  Level Estimated
01:53AM 52.8462 -38.9981 43° Northeast  Level Estimated
01:54AM 52.9530 -38.8339 43° Northeast  Level Estimated
01:55AM 53.0596 -38.6689 43° Northeast  Level Estimated
01:56AM 53.1659 -38.5031 43° Northeast  Level Estimated
01:57AM 53.2721 -38.3364 43° Northeast  Level Estimated
01:58AM 53.3779 -38.1689 43° Northeast  Level Estimated
01:59AM 53.4836 -38.0006 43° Northeast  Level Estimated
02:00AM 53.5890 -37.8315 44° Northeast  Level Estimated
02:01AM 53.6942 -37.6615 44° Northeast  Level Estimated
02:02AM 53.7991 -37.4907 44° Northeast  Level Estimated
02:03AM 53.9038 -37.3190 44° Northeast  Level Estimated
02:04AM 54.0082 -37.1464 44° Northeast  Level Estimated
02:05AM 54.1124 -36.9730 44° Northeast  Level Estimated
02:06AM 54.2164 -36.7987 44° Northeast  Level Estimated
02:07AM 54.3200 -36.6236 45° Northeast  Level Estimated
02:07AM 52.0000 -40.0000 77° East 616 709 34,000  Level ETMS Enhanced Traffic Management System
02:08AM 54.4235 -36.4475 45° Northeast  Level Estimated
02:09AM 54.5266 -36.2705 45° Northeast  Level Estimated
02:10AM 54.6296 -36.0927 45° Northeast  Level Estimated
02:11AM 54.7322 -35.9140 45° Northeast  Level Estimated
02:12AM 54.8346 -35.7343 45° Northeast  Level Estimated
02:13AM 52.8296 -32.5400 83° East 616 709 34,000  Level FlightAware Transoceanic
02:14AM 52.8512 -32.2588 83° East 616 709 34,000  Level FlightAware Transoceanic
02:15AM 52.8721 -31.9773 83° East 616 709 34,000  Level FlightAware Transoceanic
02:16AM 52.8924 -31.6956 83° East 616 709 34,000  Level FlightAware Transoceanic
02:17AM 52.9120 -31.4136 84° East 616 709 34,000  Level FlightAware Transoceanic
02:18AM 52.9310 -31.1313 84° East 616 709 34,000  Level FlightAware Transoceanic
02:19AM 52.9492 -30.8488 84° East 616 709 34,000  Level FlightAware Transoceanic
02:20AM 52.9668 -30.5661 84° East 616 709 34,000  Level FlightAware Transoceanic
02:21AM 52.9837 -30.2832 84° East 616 709 34,000 -60 Level FlightAware Transoceanic
02:22AM 53.0745 -30.0937 51° Northeast  Level Estimated
02:23AM 53.1649 -29.9034 52° Northeast  Level Estimated
02:24AM 53.2550 -29.7123 52° Northeast  Level Estimated
02:25AM 53.3448 -29.5205 52° Northeast  Level Estimated
02:26AM 53.4343 -29.3278 52° Northeast  Level Estimated
02:27AM 53.5235 -29.1343 52° Northeast  Level Estimated
02:28AM 53.6124 -28.9399 52° Northeast  Level Estimated
02:29AM 53.7009 -28.7448 52° Northeast  Level Estimated
02:30AM 53.7892 -28.5488 53° Northeast  Level Estimated
02:31AM 53.8771 -28.3521 53° Northeast  Level Estimated
02:32AM 53.9647 -28.1544 53° Northeast  Level Estimated
02:33AM 54.0520 -27.9560 53° Northeast  Level Estimated
02:34AM 54.1389 -27.7567 53° Northeast  Level Estimated
02:35AM 54.2255 -27.5566 53° Northeast  Level Estimated
02:36AM 54.3118 -27.3557 54° Northeast  Level Estimated
02:37AM 54.3977 -27.1539 54° Northeast  Level Estimated
02:38AM 54.4833 -26.9512 54° Northeast  Level Estimated
02:39AM 54.5686 -26.7477 54° Northeast  Level Estimated
02:40AM 54.6535 -26.5434 54° Northeast  Level Estimated
02:41AM 54.7381 -26.3382 54° Northeast  Level Estimated
02:42AM 54.8223 -26.1322 55° Northeast  Level Estimated
02:43AM 54.9062 -25.9252 55° Northeast  Level Estimated
02:44AM 54.9898 -25.7175 55° Northeast  Level Estimated
02:45AM 55.0729 -25.5088 55° Northeast  Level Estimated
02:46AM 55.1557 -25.2993 55° Northeast  Level Estimated
02:47AM 55.2382 -25.0889 55° Northeast  Level Estimated
02:48AM 55.3203 -24.8777 56° Northeast  Level Estimated
02:49AM 55.4020 -24.6656 56° Northeast  Level Estimated
02:50AM 55.4833 -24.4526 56° Northeast  Level Estimated
02:51AM 55.5643 -24.2387 56° Northeast  Level Estimated
02:52AM 55.6449 -24.0239 56° Northeast  Level Estimated
02:53AM 55.7252 -23.8083 56° Northeast  Level Estimated
02:54AM 55.8050 -23.5918 57° Northeast  Level Estimated
02:55AM 55.8845 -23.3743 57° Northeast  Level Estimated
02:56AM 55.9636 -23.1560 57° Northeast  Level Estimated
02:57AM 56.0423 -22.9368 57° Northeast  Level Estimated
02:58AM 56.1206 -22.7167 57° Northeast  Level Estimated
02:59AM 56.1985 -22.4958 58° Northeast  Level Estimated
03:00AM 56.2760 -22.2739 58° Northeast  Level Estimated
03:01AM 56.3531 -22.0511 58° Northeast  Level Estimated
03:02AM 56.4299 -21.8274 58° Northeast  Level Estimated
03:03AM 56.5062 -21.6028 58° Northeast  Level Estimated
03:04AM 56.5821 -21.3773 58° Northeast  Level Estimated
03:05AM 56.6576 -21.1509 59° Northeast  Level Estimated
03:06AM 56.7327 -20.9236 59° Northeast  Level Estimated
03:07AM 56.8074 -20.6954 59° Northeast  Level Estimated
03:08AM 56.8816 -20.4663 59° Northeast  Level Estimated
03:09AM 56.9554 -20.2362 59° Northeast  Level Estimated
03:10AM 57.0289 -20.0053 60° Northeast  Level Estimated
03:11AM 57.1018 -19.7735 60° Northeast  Level Estimated
03:12AM 57.1744 -19.5407 60° Northeast  Level Estimated
03:13AM 57.2465 -19.3070 60° Northeast  Level Estimated
03:14AM 57.3182 -19.0724 60° Northeast  Level Estimated
03:15AM 57.3894 -18.8369 61° Northeast  Level Estimated
03:16AM 57.4603 -18.6005 61° Northeast  Level Estimated
03:17AM 57.5306 -18.3632 61° Northeast  Level Estimated
03:18AM 57.6005 -18.1249 61° Northeast  Level Estimated
03:19AM 57.6700 -17.8858 61° Northeast  Level Estimated
03:20AM 57.7390 -17.6457 62° Northeast  Level Estimated
03:21AM 57.8076 -17.4047 62° Northeast  Level Estimated
03:22AM 57.8757 -17.1628 62° Northeast  Level Estimated
03:23AM 57.9433 -16.9200 62° Northeast  Level Estimated
03:24AM 58.0105 -16.6762 62° Northeast  Level Estimated
03:25AM 58.0772 -16.4316 63° Northeast  Level Estimated
03:26AM 58.1434 -16.1860 63° Northeast  Level Estimated
03:27AM 58.2092 -15.9395 63° Northeast  Level Estimated
03:28AM 58.2744 -15.6922 63° Northeast  Level Estimated
03:29AM 58.3392 -15.4438 63° Northeast  Level Estimated
03:30AM 58.4036 -15.1946 64° Northeast  Level Estimated
03:31AM 58.4674 -14.9445 64° Northeast  Level Estimated
03:32AM 58.5308 -14.6935 64° Northeast  Level Estimated
03:33AM 58.5936 -14.4416 64° Northeast  Level Estimated
03:34AM 58.6560 -14.1888 65° Northeast  Level Estimated
03:35AM 58.7178 -13.9350 65° Northeast  Level Estimated
03:36AM 58.7792 -13.6804 65° Northeast  Level Estimated
03:37AM 58.8401 -13.4249 65° Northeast  Level Estimated
03:38AM 58.9004 -13.1685 65° Northeast  Level Estimated
03:39AM 58.9603 -12.9111 66° East  Level Estimated
03:40AM 59.0196 -12.6529 66° East  Level Estimated
03:41AM 59.0784 -12.3938 66° East  Level Estimated
03:42AM 59.1367 -12.1339 66° East  Level Estimated
03:43AM 59.1945 -11.8730 67° East  Level Estimated
03:44AM 59.2517 -11.6113 67° East  Level Estimated
03:45AM 59.3085 -11.3486 67° East  Level Estimated
03:46AM 59.3647 -11.0851 67° East  Level Estimated
03:47AM 59.4203 -10.8208 67° East  Level Estimated
03:48AM 59.4754 -10.5556 68° East  Level Estimated
03:49AM 59.5300 -10.2895 68° East  Level Estimated
03:50AM 59.5841 -10.0225 68° East  Level Estimated
03:51AM 59.6376 -9.7547 68° East  Level Estimated
03:52AM 59.6905 -9.4860 69° East  Level Estimated
03:53AM 59.7429 -9.2165 69° East  Level Estimated
03:54AM 59.7948 -8.9462 69° East  Level Estimated
03:55AM 59.8461 -8.6750 69° East  Level Estimated
03:56AM 59.8968 -8.4030 69° East  Level Estimated
03:57AM 59.9470 -8.1302 70° East  Level Estimated
03:58AM 59.9966 -7.8565 70° East  Level Estimated
03:59AM 60.0456 -7.5820 70° East  Level Estimated
04:00AM 60.0941 -7.3067 70° East  Level Estimated
04:01AM 60.1420 -7.0306 71° East  Level Estimated
04:02AM 60.1893 -6.7537 71° East  Level Estimated
04:03AM 60.2361 -6.4760 71° East  Level Estimated
04:04AM 60.2822 -6.1975 71° East  Level Estimated
04:05AM 60.3278 -5.9183 72° East  Level Estimated
04:06AM 60.3728 -5.6382 72° East  Level Estimated
04:07AM 60.4172 -5.3574 72° East  Level Estimated
04:08AM 60.4610 -5.0759 72° East  Level Estimated
04:09AM 60.5042 -4.7935 73° East  Level Estimated
04:10AM 60.5468 -4.5104 73° East  Level Estimated
04:11AM 60.5888 -4.2266 73° East  Level Estimated
04:12AM 60.6302 -3.9421 73° East  Level Estimated
04:13AM 60.6710 -3.6568 74° East  Level Estimated
04:14AM 60.7112 -3.3708 74° East  Level Estimated
04:15AM 60.7508 -3.0841 74° East  Level Estimated
04:16AM 60.7898 -2.7967 74° East  Level Estimated
04:17AM 60.8281 -2.5086 75° East  Level Estimated
04:18AM 60.8659 -2.2198 75° East  Level Estimated
04:19AM 60.9030 -1.9303 75° East  Level Estimated
04:20AM 60.9395 -1.6402 75° East  Level Estimated
04:21AM 60.9754 -1.3494 76° East  Level Estimated
04:22AM 61.0106 -1.0579 76° East  Level Estimated
04:23AM 61.0452 -0.7658 76° East  Level Estimated
04:24AM 61.0792 -0.4731 76° East  Level Estimated
04:25AM 61.1125 -0.1797 77° East  Level Estimated
04:26AM 61.1452 0.1142 77° East  Level Estimated
04:27AM 61.1773 0.4088 77° East  Level Estimated
04:28AM 61.2088 0.7039 77° East  Level Estimated
04:29AM 61.2395 0.9997 78° East  Level Estimated
04:30AM 61.2697 1.2960 78° East  Level Estimated
04:31AM 61.2992 1.5929 78° East  Level Estimated
04:32AM 61.3280 1.8903 78° East  Level Estimated
04:33AM 61.3562 2.1883 79° East  Level Estimated
04:34AM 61.3837 2.4868 79° East  Level Estimated
04:35AM 61.4106 2.7858 79° East  Level Estimated
04:36AM 61.4369 3.0854 79° East  Level Estimated
04:37AM 61.4624 3.3854 80° East  Level Estimated
04:38AM 61.4873 3.6859 80° East  Level Estimated
04:39AM 61.5116 3.9869 80° East  Level Estimated
04:40AM 61.5352 4.2884 81° East  Level Estimated
04:41AM 61.5581 4.5903 81° East  Level Estimated
04:42AM 61.5803 4.8926 81° East  Level Estimated
04:43AM 61.6019 5.1954 81° East  Level Estimated
04:44AM 61.6228 5.4986 82° East  Level Estimated
04:45AM 61.6431 5.8022 82° East  Level Estimated
04:46AM 61.6626 6.1062 82° East  Level Estimated
04:47AM 61.6815 6.4106 82° East  Level Estimated
04:48AM 61.6997 6.7153 83° East  Level Estimated
04:49AM 61.7173 7.0204 83° East  Level Estimated
04:50AM 61.7341 7.3258 83° East  Level Estimated
04:51AM 61.7503 7.6316 83° East  Level Estimated
04:52AM 61.7658 7.9376 84° East  Level Estimated
04:53AM 61.7807 8.2440 84° East  Level Estimated
04:54AM 61.7948 8.5507 84° East  Level Estimated
04:55AM 61.8082 8.8576 85° East  Level Estimated
04:56AM 61.8210 9.1648 85° East  Level Estimated
04:57AM 61.8331 9.4722 85° East  Level Estimated
04:58AM 61.8445 9.7799 85° East  Level Estimated
04:59AM 61.8552 10.0878 86° East  Level Estimated
05:00AM 61.8652 10.3959 86° East  Level Estimated
05:01AM 61.8745 10.7042 86° East  Level Estimated
05:02AM 61.8831 11.0127 86° East  Level Estimated
05:03AM 61.8911 11.3214 87° East  Level Estimated
05:04AM 61.8983 11.6302 87° East  Level Estimated
05:05AM 61.9049 11.9391 87° East  Level Estimated
05:06AM 61.9107 12.2482 88° East  Level Estimated
05:07AM 61.9159 12.5574 88° East  Level Estimated
05:08AM 61.9204 12.8667 88° East  Level Estimated
05:09AM 61.9242 13.1760 88° East  Level Estimated
05:10AM 61.9273 13.4854 89° East  Level Estimated
05:11AM 61.9297 13.7949 89° East  Level Estimated
05:12AM 61.9314 14.1045 89° East  Level Estimated
05:13AM 61.9324 14.4140 89° East  Level Estimated
05:14AM 61.9327 14.7236 90° East  Level Estimated
05:15AM 61.9323 15.0332 90° East  Level Estimated
05:16AM 61.9313 15.3427 90° East  Level Estimated
05:17AM 61.9295 15.6523 91° East  Level Estimated
05:18AM 61.9270 15.9617 91° East  Level Estimated
05:19AM 61.9239 16.2712 91° East  Level Estimated
05:20AM 61.9200 16.5805 91° East  Level Estimated
05:21AM 61.9155 16.8898 92° East  Level Estimated
05:22AM 61.9103 17.1990 92° East  Level Estimated
05:23AM 61.9043 17.5080 92° East  Level Estimated
05:24AM 61.8977 17.8170 92° East  Level Estimated
05:25AM 61.8904 18.1257 93° East  Level Estimated
05:26AM 61.8824 18.4344 93° East  Level Estimated
05:27AM 61.8737 18.7429 93° East  Level Estimated
05:28AM 61.8643 19.0511 94° East  Level Estimated
05:29AM 61.8543 19.3592 94° East  Level Estimated
05:30AM 61.8435 19.6671 94° East  Level Estimated
05:31AM 61.8321 19.9748 94° East  Level Estimated
05:32AM 61.8199 20.2822 95° East  Level Estimated
05:33AM 61.8071 20.5894 95° East  Level Estimated
05:34AM 61.7936 20.8963 95° East  Level Estimated
05:35AM 61.7794 21.2029 95° East  Level Estimated
05:36AM 61.7645 21.5093 96° East  Level Estimated
05:37AM 61.7490 21.8153 96° East  Level Estimated
05:38AM 61.7327 22.1210 96° East  Level Estimated
05:39AM 61.7158 22.4264 97° East  Level Estimated
05:40AM 61.6982 22.7315 97° East  Level Estimated
05:41AM 61.6799 23.0362 97° East  Level Estimated
05:42AM 61.6610 23.3405 97° East  Level Estimated
05:43AM 61.6414 23.6445 98° East  Level Estimated
05:44AM 61.6211 23.9480 98° East  Level Estimated
05:45AM 61.6001 24.2512 98° East  Level Estimated
05:46AM 61.5785 24.5539 98° East  Level Estimated
05:47AM 61.5561 24.8562 99° East  Level Estimated
05:48AM 61.5332 25.1581 99° East  Level Estimated
05:49AM 61.5095 25.4595 99° East  Level Estimated
05:50AM 61.4852 25.7605 99° East  Level Estimated
05:51AM 61.4603 26.0609 100° East  Level Estimated
05:52AM 61.4347 26.3609 100° East  Level Estimated
05:53AM 61.4084 26.6604 100° East  Level Estimated
05:54AM 61.3814 26.9594 101° East  Level Estimated
05:55AM 61.3538 27.2579 101° East  Level Estimated
05:56AM 61.3256 27.5558 101° East  Level Estimated
05:57AM 61.2967 27.8532 101° East  Level Estimated
05:58AM 61.2671 28.1500 102° East  Level Estimated
05:59AM 61.2369 28.4463 102° East  Level Estimated
06:00AM 61.2061 28.7420 102° East  Level Estimated
06:01AM 61.1746 29.0371 102° East  Level Estimated
06:02AM 61.1425 29.3316 103° East  Level Estimated
06:03AM 61.1097 29.6255 103° East  Level Estimated
06:04AM 61.0763 29.9188 103° East  Level Estimated
06:05AM 61.0423 30.2115 103° East  Level Estimated
06:06AM 61.0076 30.5035 104° East  Level Estimated
06:07AM 60.9723 30.7949 104° East  Level Estimated
06:08AM 60.9364 31.0857 104° East  Level Estimated
06:09AM 60.8999 31.3757 104° East  Level Estimated
06:10AM 60.8627 31.6652 105° East  Level Estimated
06:11AM 60.8249 31.9539 105° East  Level Estimated
06:12AM 60.7865 32.2420 105° East  Level Estimated
06:13AM 60.7475 32.5293 105° East  Level Estimated
06:14AM 60.7078 32.8159 106° East  Level Estimated
06:15AM 60.6676 33.1019 106° East  Level Estimated
06:16AM 60.6267 33.3871 106° East  Level Estimated
06:17AM 60.5853 33.6716 106° East  Level Estimated
06:18AM 60.5432 33.9554 107° East  Level Estimated
06:19AM 60.5006 34.2384 107° East  Level Estimated
06:20AM 60.4573 34.5206 107° East  Level Estimated
06:21AM 60.4134 34.8022 107° East  Level Estimated
06:22AM 60.3690 35.0829 108° East  Level Estimated
06:23AM 60.3240 35.3629 108° East  Level Estimated
06:24AM 60.2783 35.6421 108° East  Level Estimated
06:25AM 60.2321 35.9205 108° East  Level Estimated
06:26AM 60.1853 36.1981 109° East  Level Estimated
06:27AM 60.1380 36.4750 109° East  Level Estimated
06:28AM 60.0900 36.7510 109° East  Level Estimated
06:29AM 60.0415 37.0262 109° East  Level Estimated
06:30AM 59.9924 37.3006 110° East  Level Estimated
06:31AM 59.9427 37.5742 110° East  Level Estimated
06:32AM 59.8925 37.8470 110° East  Level Estimated
06:33AM 59.8418 38.1189 110° East  Level Estimated
06:34AM 59.7904 38.3900 111° Southeast  Level Estimated
06:35AM 59.7385 38.6603 111° Southeast  Level Estimated
06:36AM 59.6861 38.9297 111° Southeast  Level Estimated
06:37AM 59.6331 39.1983 111° Southeast  Level Estimated
06:38AM 59.5795 39.4661 111° Southeast  Level Estimated
06:39AM 59.5254 39.7329 112° Southeast  Level Estimated
06:40AM 59.4708 39.9990 112° Southeast  Level Estimated
06:41AM 59.4156 40.2641 112° Southeast  Level Estimated
06:42AM 59.3599 40.5284 112° Southeast  Level Estimated
06:43AM 59.3037 40.7918 113° Southeast  Level Estimated
06:44AM 59.2469 41.0544 113° Southeast  Level Estimated
06:45AM 59.1896 41.3161 113° Southeast  Level Estimated
06:46AM 59.1318 41.5769 113° Southeast  Level Estimated
06:47AM 59.0734 41.8368 114° Southeast  Level Estimated
06:48AM 59.0146 42.0958 114° Southeast  Level Estimated
06:49AM 58.9552 42.3539 114° Southeast  Level Estimated
06:50AM 58.8953 42.6111 114° Southeast  Level Estimated
06:51AM 58.8349 42.8675 114° Southeast  Level Estimated
06:52AM 58.7740 43.1230 115° Southeast  Level Estimated
06:53AM 58.7126 43.3775 115° Southeast  Level Estimated
06:54AM 58.6507 43.6311 115° Southeast  Level Estimated
06:55AM 58.5883 43.8839 115° Southeast  Level Estimated
06:56AM 58.5254 44.1357 115° Southeast  Level Estimated
06:57AM 58.4620 44.3867 116° Southeast  Level Estimated
06:58AM 58.3981 44.6367 116° Southeast  Level Estimated
06:59AM 58.3338 44.8859 116° Southeast  Level Estimated
07:00AM 58.2689 45.1341 116° Southeast  Level Estimated
07:01AM 58.2036 45.3814 117° Southeast  Level Estimated
07:02AM 58.1378 45.6278 117° Southeast  Level Estimated
07:03AM 58.0715 45.8733 117° Southeast  Level Estimated
07:04AM 58.0048 46.1178 117° Southeast  Level Estimated
07:05AM 57.9376 46.3615 117° Southeast  Level Estimated
07:06AM 57.8699 46.6042 118° Southeast  Level Estimated
07:07AM 57.8018 46.8461 118° Southeast  Level Estimated
07:08AM 57.7332 47.0870 118° Southeast  Level Estimated
07:09AM 57.6641 47.3270 118° Southeast  Level Estimated
07:10AM 57.5946 47.5661 118° Southeast  Level Estimated
07:11AM 57.5247 47.8042 119° Southeast  Level Estimated
07:12AM 57.4543 48.0415 119° Southeast  Level Estimated
07:13AM 57.3834 48.2779 119° Southeast  Level Estimated
07:14AM 57.3121 48.5133 119° Southeast  Level Estimated
07:15AM 57.2404 48.7478 119° Southeast  Level Estimated
07:16AM 57.1683 48.9814 120° Southeast  Level Estimated
07:17AM 57.0957 49.2141 120° Southeast  Level Estimated
07:18AM 57.0227 49.4459 120° Southeast  Level Estimated
07:19AM 56.9492 49.6767 120° Southeast  Level Estimated
07:20AM 56.8753 49.9067 120° Southeast  Level Estimated
07:21AM 56.8010 50.1357 121° Southeast  Level Estimated
07:22AM 56.7263 50.3638 121° Southeast  Level Estimated
07:23AM 56.6512 50.5911 121° Southeast  Level Estimated
07:24AM 56.5757 50.8174 121° Southeast  Level Estimated
07:25AM 56.4997 51.0428 121° Southeast  Level Estimated
07:26AM 56.4234 51.2673 122° Southeast  Level Estimated
07:27AM 56.3466 51.4909 122° Southeast  Level Estimated
07:28AM 56.2695 51.7136 122° Southeast  Level Estimated
07:29AM 56.1919 51.9354 122° Southeast  Level Estimated
07:30AM 56.1140 52.1563 122° Southeast  Level Estimated
07:31AM 56.0356 52.3764 122° Southeast  Level Estimated
07:32AM 55.9569 52.5955 123° Southeast  Level Estimated
07:33AM 55.8778 52.8137 123° Southeast  Level Estimated
07:34AM 55.7983 53.0311 123° Southeast  Level Estimated
07:35AM 55.7184 53.2475 123° Southeast  Level Estimated
07:36AM 55.6381 53.4631 123° Southeast  Level Estimated
07:37AM 55.5575 53.6778 124° Southeast  Level Estimated
07:38AM 55.4765 53.8916 124° Southeast  Level Estimated
07:39AM 55.3951 54.1045 124° Southeast  Level Estimated
07:40AM 55.3134 54.3166 124° Southeast  Level Estimated
07:41AM 55.2312 54.5277 124° Southeast  Level Estimated
07:42AM 55.1488 54.7380 124° Southeast  Level Estimated
07:43AM 55.0659 54.9475 125° Southeast  Level Estimated
07:44AM 54.9827 55.1561 125° Southeast  Level Estimated
07:45AM 54.8992 55.3638 125° Southeast  Level Estimated
07:46AM 54.8153 55.5706 125° Southeast  Level Estimated
07:47AM 54.7310 55.7766 125° Southeast  Level Estimated
07:48AM 54.6464 55.9817 125° Southeast  Level Estimated
07:49AM 54.5614 56.1860 126° Southeast  Level Estimated
07:50AM 54.4761 56.3894 126° Southeast  Level Estimated
07:51AM 54.3905 56.5919 126° Southeast  Level Estimated
07:52AM 54.3045 56.7937 126° Southeast  Level Estimated
07:53AM 54.2182 56.9945 126° Southeast  Level Estimated
07:54AM 54.1316 57.1946 126° Southeast  Level Estimated
07:55AM 54.0446 57.3938 127° Southeast  Level Estimated
07:56AM 53.9573 57.5922 127° Southeast  Level Estimated
07:57AM 53.8697 57.7897 127° Southeast  Level Estimated
07:58AM 53.7817 57.9864 127° Southeast  Level Estimated
07:59AM 53.6935 58.1823 127° Southeast  Level Estimated
08:00AM 53.6049 58.3774 127° Southeast  Level Estimated
08:01AM 53.5160 58.5716 128° Southeast  Level Estimated
08:02AM 53.4268 58.7651 128° Southeast  Level Estimated
08:03AM 53.3372 58.9577 128° Southeast  Level Estimated
08:04AM 53.2474 59.1495 128° Southeast  Level Estimated
08:05AM 53.1573 59.3405 128° Southeast  Level Estimated
08:06AM 53.0668 59.5307 128° Southeast  Level Estimated
08:07AM 52.9761 59.7201 128° Southeast  Level Estimated
08:08AM 52.8850 59.9088 129° Southeast  Level Estimated
08:09AM 52.7937 60.0966 129° Southeast  Level Estimated
08:10AM 52.7020 60.2836 129° Southeast  Level Estimated
08:11AM 52.6101 60.4699 129° Southeast  Level Estimated
08:12AM 52.5179 60.6553 129° Southeast  Level Estimated
08:13AM 52.4254 60.8400 129° Southeast  Level Estimated
08:14AM 52.3326 61.0239 130° Southeast  Level Estimated
08:15AM 52.2395 61.2071 130° Southeast  Level Estimated
08:16AM 52.1461 61.3895 130° Southeast  Level Estimated
08:17AM 52.0525 61.5711 130° Southeast  Level Estimated
08:18AM 51.9586 61.7519 130° Southeast  Level Estimated
08:19AM 51.8644 61.9320 130° Southeast  Level Estimated
08:20AM 51.7699 62.1114 130° Southeast  Level Estimated
08:21AM 51.6752 62.2900 131° Southeast  Level Estimated
08:22AM 51.5801 62.4678 131° Southeast  Level Estimated
08:23AM 51.4849 62.6449 131° Southeast  Level Estimated
08:24AM 51.3893 62.8213 131° Southeast  Level Estimated
08:25AM 51.2935 62.9969 131° Southeast  Level Estimated
08:26AM 51.1974 63.1718 131° Southeast  Level Estimated
08:27AM 51.1011 63.3459 131° Southeast  Level Estimated
08:28AM 51.0045 63.5194 131° Southeast  Level Estimated
08:29AM 50.9077 63.6921 132° Southeast  Level Estimated
08:30AM 50.8106 63.8641 132° Southeast  Level Estimated
08:31AM 50.7132 64.0354 132° Southeast  Level Estimated
08:32AM 50.6156 64.2059 132° Southeast  Level Estimated
08:33AM 50.5178 64.3758 132° Southeast  Level Estimated
08:34AM 50.4197 64.5450 132° Southeast  Level Estimated
08:35AM 50.3213 64.7134 132° Southeast  Level Estimated
08:36AM 50.2227 64.8812 133° Southeast  Level Estimated
08:37AM 50.1239 65.0483 133° Southeast  Level Estimated
08:38AM 50.0249 65.2146 133° Southeast  Level Estimated
08:39AM 49.9256 65.3803 133° Southeast  Level Estimated
08:40AM 49.8260 65.5454 133° Southeast  Level Estimated
08:41AM 49.7263 65.7097 133° Southeast  Level Estimated
08:42AM 49.6263 65.8734 133° Southeast  Level Estimated
08:43AM 49.5260 66.0363 133° Southeast  Level Estimated
08:44AM 49.4256 66.1987 134° Southeast  Level Estimated
08:45AM 49.3249 66.3603 134° Southeast  Level Estimated
08:46AM 49.2240 66.5213 134° Southeast  Level Estimated
08:47AM 49.1228 66.6817 134° Southeast  Level Estimated
08:48AM 49.0215 66.8414 134° Southeast  Level Estimated
08:49AM 48.9199 67.0004 134° Southeast  Level Estimated
08:50AM 48.8181 67.1588 134° Southeast  Level Estimated
08:51AM 48.7161 67.3165 134° Southeast  Level Estimated
08:52AM 48.6139 67.4736 135° Southeast  Level Estimated
08:53AM 48.5115 67.6301 135° Southeast  Level Estimated
08:54AM 48.4089 67.7860 135° Southeast  Level Estimated
08:55AM 48.3060 67.9412 135° Southeast  Level Estimated
08:56AM 48.2029 68.0958 135° Southeast  Level Estimated
08:57AM 48.0997 68.2497 135° Southeast  Level Estimated
08:58AM 47.9962 68.4031 135° Southeast  Level Estimated
08:59AM 47.8925 68.5558 135° Southeast  Level Estimated
09:00AM 47.7886 68.7079 135° Southeast  Level Estimated
09:01AM 47.6846 68.8595 136° Southeast  Level Estimated
09:02AM 47.5803 69.0104 136° Southeast  Level Estimated
09:03AM 47.4758 69.1607 136° Southeast  Level Estimated
09:04AM 47.3711 69.3104 136° Southeast  Level Estimated
09:05AM 47.2663 69.4595 136° Southeast  Level Estimated
09:06AM 47.1612 69.6081 136° Southeast  Level Estimated
09:07AM 47.0560 69.7560 136° Southeast  Level Estimated
09:08AM 46.9505 69.9034 136° Southeast  Level Estimated
09:09AM 46.8449 70.0501 136° Southeast  Level Estimated
09:10AM 46.7391 70.1964 137° Southeast  Level Estimated
09:11AM 46.6331 70.3420 137° Southeast  Level Estimated
09:12AM 46.5269 70.4871 137° Southeast  Level Estimated
09:13AM 46.4206 70.6316 137° Southeast  Level Estimated
09:14AM 46.3140 70.7755 137° Southeast  Level Estimated
09:15AM 46.2073 70.9189 137° Southeast  Level Estimated
09:16AM 46.1004 71.0617 137° Southeast  Level Estimated
09:17AM 45.9933 71.2039 137° Southeast  Level Estimated
09:18AM 45.8861 71.3456 137° Southeast  Level Estimated
09:19AM 45.7786 71.4868 137° Southeast  Level Estimated
09:20AM 45.6710 71.6274 138° Southeast  Level Estimated
09:21AM 45.5632 71.7675 138° Southeast  Level Estimated
09:22AM 45.4553 71.9071 138° Southeast  Level Estimated
09:23AM 45.3472 72.0461 138° Southeast  Level Estimated
09:24AM 45.2389 72.1845 138° Southeast  Level Estimated
09:25AM 45.1304 72.3225 138° Southeast  Level Estimated
09:26AM 45.0218 72.4599 138° Southeast  Level Estimated
09:27AM 44.9130 72.5968 138° Southeast  Level Estimated
09:28AM 44.8041 72.7332 138° Southeast  Level Estimated
09:29AM 44.6950 72.8691 138° Southeast  Level Estimated
09:30AM 44.5857 73.0045 139° Southeast  Level Estimated
09:31AM 44.4763 73.1393 139° Southeast  Level Estimated
09:32AM 44.3667 73.2737 139° Southeast  Level Estimated
09:33AM 44.2570 73.4075 139° Southeast  Level Estimated
09:34AM 44.1471 73.5409 139° Southeast  Level Estimated
09:35AM 44.0370 73.6738 139° Southeast  Level Estimated
09:36AM 43.9268 73.8061 139° Southeast  Level Estimated
09:37AM 43.8165 73.9380 139° Southeast  Level Estimated
09:38AM 43.7060 74.0694 139° Southeast  Level Estimated
09:39AM 43.5953 74.2003 139° Southeast  Level Estimated
09:40AM 43.4845 74.3307 139° Southeast  Level Estimated
09:41AM 43.3736 74.4606 140° Southeast  Level Estimated
09:42AM 43.2625 74.5901 140° Southeast  Level Estimated
09:43AM 43.1512 74.7191 140° Southeast  Level Estimated
09:44AM 43.0398 74.8476 140° Southeast  Level Estimated
09:45AM 42.9283 74.9757 140° Southeast  Level Estimated
09:46AM 42.8166 75.1033 140° Southeast  Level Estimated
09:47AM 42.7048 75.2304 140° Southeast  Level Estimated
09:48AM 42.5928 75.3571 140° Southeast  Level Estimated
09:49AM 42.4807 75.4833 140° Southeast  Level Estimated
09:50AM 42.3685 75.6091 140° Southeast  Level Estimated
09:51AM 42.2561 75.7344 140° Southeast  Level Estimated
09:52AM 42.1436 75.8593 141° Southeast  Level Estimated
09:53AM 42.0310 75.9838 141° Southeast  Level Estimated
09:54AM 41.9182 76.1078 141° Southeast  Level Estimated
09:55AM 41.8053 76.2313 141° Southeast  Level Estimated
09:56AM 41.6923 76.3544 141° Southeast  Level Estimated
09:57AM 41.5791 76.4771 141° Southeast  Level Estimated
09:58AM 41.4658 76.5994 141° Southeast  Level Estimated
09:59AM 41.3524 76.7212 141° Southeast  Level Estimated
10:00AM 41.2388 76.8426 141° Southeast  Level Estimated
10:01AM 41.1251 76.9636 141° Southeast  Level Estimated
10:02AM 41.0113 77.0842 141° Southeast  Level Estimated
10:03AM 40.8974 77.2043 141° Southeast  Level Estimated
10:04AM 40.7833 77.3241 142° Southeast  Level Estimated
10:05AM 40.6691 77.4434 142° Southeast  Level Estimated
10:06AM 40.5548 77.5623 142° Southeast  Level Estimated
10:07AM 40.4404 77.6808 142° Southeast  Level Estimated
10:08AM 40.3259 77.7990 142° Southeast  Level Estimated
10:09AM 40.2112 77.9167 142° Southeast  Level Estimated
10:10AM 40.0964 78.0340 142° Southeast  Level Estimated
10:11AM 39.9815 78.1509 142° Southeast  Level Estimated
10:12AM 39.8665 78.2674 142° Southeast  Level Estimated
10:13AM 39.7513 78.3836 142° Southeast  Level Estimated
10:14AM 39.6361 78.4993 142° Southeast  Level Estimated
10:15AM 39.5207 78.6147 142° Southeast  Level Estimated
10:16AM 39.4052 78.7297 142° Southeast  Level Estimated
10:17AM 39.2896 78.8443 142° Southeast  Level Estimated
10:18AM 39.1739 78.9585 143° Southeast  Level Estimated
10:19AM 39.0581 79.0723 143° Southeast  Level Estimated
10:20AM 38.9422 79.1858 143° Southeast  Level Estimated
10:21AM 38.8261 79.2989 143° Southeast  Level Estimated
10:22AM 38.7100 79.4116 143° Southeast  Level Estimated
10:23AM 38.5937 79.5240 143° Southeast  Level Estimated
10:24AM 38.4774 79.6360 143° Southeast  Level Estimated
10:25AM 38.3609 79.7477 143° Southeast  Level Estimated
10:26AM 38.2443 79.8589 143° Southeast  Level Estimated
10:27AM 38.1277 79.9699 143° Southeast  Level Estimated
10:28AM 38.0109 80.0804 143° Southeast  Level Estimated
10:29AM 37.8940 80.1907 143° Southeast  Level Estimated
10:30AM 37.7770 80.3005 143° Southeast  Level Estimated
10:31AM 37.6599 80.4101 143° Southeast  Level Estimated
10:32AM 37.5427 80.5192 144° Southeast  Level Estimated
10:33AM 37.4254 80.6281 144° Southeast  Level Estimated
10:34AM 37.3080 80.7366 144° Southeast  Level Estimated
10:35AM 37.1906 80.8447 144° Southeast  Level Estimated
10:36AM 37.0730 80.9526 144° Southeast  Level Estimated
10:37AM 36.9553 81.0601 144° Southeast  Level Estimated
10:38AM 36.8375 81.1672 144° Southeast  Level Estimated
10:39AM 36.7196 81.2740 144° Southeast  Level Estimated
10:40AM 36.6017 81.3805 144° Southeast  Level Estimated
10:41AM 36.4836 81.4867 144° Southeast  Level Estimated
10:42AM 36.3654 81.5926 144° Southeast  Level Estimated
10:43AM 36.2472 81.6981 144° Southeast  Level Estimated
10:44AM 36.1288 81.8033 144° Southeast  Level Estimated
10:45AM 36.0104 81.9082 144° Southeast  Level Estimated
10:46AM 35.8919 82.0128 144° Southeast  Level Estimated
10:47AM 35.7733 82.1170 144° Southeast  Level Estimated
10:48AM 35.6545 82.2210 145° Southeast  Level Estimated
10:49AM 35.5357 82.3247 145° Southeast  Level Estimated
10:50AM 35.4169 82.4280 145° Southeast  Level Estimated
10:51AM 35.2979 82.5310 145° Southeast  Level Estimated
10:52AM 35.1788 82.6338 145° Southeast  Level Estimated
10:53AM 35.0597 82.7362 145° Southeast  Level Estimated
10:54AM 34.9404 82.8383 145° Southeast  Level Estimated
10:55AM 34.8211 82.9402 145° Southeast  Level Estimated
10:56AM 34.7017 83.0417 145° Southeast  Level Estimated
10:57AM 34.5822 83.1430 145° Southeast  Level Estimated
10:58AM 34.4627 83.2439 145° Southeast  Level Estimated
10:59AM 34.3430 83.3446 145° Southeast  Level Estimated
11:00AM 34.2233 83.4450 145° Southeast  Level Estimated
11:01AM 34.1035 83.5451 145° Southeast  Level Estimated
11:02AM 33.9836 83.6449 145° Southeast  Level Estimated
11:03AM 33.8636 83.7444 145° Southeast  Level Estimated
11:04AM 33.7435 83.8437 145° Southeast  Level Estimated
11:05AM 33.6234 83.9426 146° Southeast  Level Estimated
11:06AM 33.5032 84.0413 146° Southeast  Level Estimated
11:07AM 33.3829 84.1398 146° Southeast  Level Estimated
11:08AM 33.2625 84.2379 146° Southeast  Level Estimated
11:09AM 33.1421 84.3358 146° Southeast  Level Estimated
11:10AM 33.0215 84.4334 146° Southeast  Level Estimated
11:11AM 32.9009 84.5308 146° Southeast  Level Estimated
11:12AM 32.7803 84.6279 146° Southeast  Level Estimated
11:13AM 32.6595 84.7247 146° Southeast  Level Estimated
11:14AM 32.5387 84.8212 146° Southeast  Level Estimated
11:15AM 32.4178 84.9175 146° Southeast  Level Estimated
11:16AM 32.2968 85.0136 146° Southeast  Level Estimated
11:17AM 32.1758 85.1094 146° Southeast  Level Estimated
11:18AM 32.0547 85.2049 146° Southeast  Level Estimated
11:19AM 31.9335 85.3002 146° Southeast  Level Estimated
11:20AM 31.8122 85.3952 146° Southeast  Level Estimated
11:21AM 31.6909 85.4900 146° Southeast  Level Estimated
11:22AM 31.5695 85.5845 146° Southeast  Level Estimated
11:23AM 31.4480 85.6788 146° Southeast  Level Estimated
11:24AM 31.3265 85.7729 147° Southeast  Level Estimated
11:25AM 31.2049 85.8667 147° Southeast  Level Estimated
11:26AM 31.0832 85.9602 147° Southeast  Level Estimated
11:27AM 30.9615 86.0535 147° Southeast  Level Estimated
11:28AM 30.8397 86.1466 147° Southeast  Level Estimated
11:29AM 30.7178 86.2395 147° Southeast  Level Estimated
11:30AM 30.5958 86.3321 147° Southeast  Level Estimated
11:31AM 30.4739 86.4245 147° Southeast  Level Estimated
11:32AM 30.3518 86.5166 147° Southeast  Level Estimated
11:33AM 30.2297 86.6085 147° Southeast  Level Estimated
11:34AM 30.1075 86.7002 147° Southeast  Level Estimated
11:35AM 29.9852 86.7917 147° Southeast  Level Estimated
11:36AM 29.8629 86.8829 147° Southeast  Level Estimated
11:37AM 29.7405 86.9739 147° Southeast  Level Estimated
11:38AM 29.6180 87.0647 147° Southeast  Level Estimated
11:39AM 29.4955 87.1553 147° Southeast  Level Estimated
11:40AM 29.3729 87.2456 147° Southeast  Level Estimated
11:41AM 29.2503 87.3358 147° Southeast  Level Estimated
11:42AM 29.1276 87.4257 147° Southeast  Level Estimated
11:43AM 29.0049 87.5154 147° Southeast  Level Estimated
11:44AM 28.8821 87.6049 147° Southeast  Level Estimated
11:45AM 28.7592 87.6942 147° Southeast  Level Estimated
11:46AM 28.6363 87.7832 148° Southeast  Level Estimated
11:47AM 28.5133 87.8721 148° Southeast  Level Estimated
11:48AM 28.3902 87.9608 148° Southeast  Level Estimated
11:49AM 28.2671 88.0492 148° Southeast  Level Estimated
11:50AM 28.1440 88.1375 148° Southeast  Level Estimated
11:51AM 28.0208 88.2255 148° Southeast  Level Estimated
11:52AM 27.8975 88.3133 148° Southeast  Level Estimated
11:53AM 27.7742 88.4010 148° Southeast  Level Estimated
11:54AM 27.6508 88.4884 148° Southeast  Level Estimated
11:55AM 27.5273 88.5757 148° Southeast  Level Estimated
11:56AM 27.4038 88.6627 148° Southeast  Level Estimated
11:57AM 27.2803 88.7496 148° Southeast  Level Estimated
11:58AM 27.1567 88.8362 148° Southeast  Level Estimated
11:59AM 27.0330 88.9227 148° Southeast  Level Estimated
12:00PM 26.9093 89.0090 148° Southeast  Level Estimated
12:01PM 26.7856 89.0951 148° Southeast  Level Estimated
12:02PM 26.6618 89.1810 148° Southeast  Level Estimated
12:03PM 26.5379 89.2667 148° Southeast  Level Estimated
12:04PM 26.4140 89.3522 148° Southeast  Level Estimated
12:05PM 26.2900 89.4376 148° Southeast  Level Estimated
12:06PM 26.1660 89.5228 148° Southeast  Level Estimated
12:07PM 26.0420 89.6077 148° Southeast  Level Estimated
12:08PM 25.9179 89.6926 148° Southeast  Level Estimated
12:09PM 25.7937 89.7772 148° Southeast  Level Estimated
12:10PM 25.6695 89.8616 148° Southeast  Level Estimated
12:11PM 25.5452 89.9459 149° Southeast  Level Estimated
12:12PM 25.4209 90.0300 149° Southeast  Level Estimated
12:13PM 25.2966 90.1139 149° Southeast  Level Estimated
12:14PM 25.1722 90.1977 149° Southeast  Level Estimated
12:15PM 25.0477 90.2813 149° Southeast  Level Estimated
12:16PM 24.9232 90.3647 149° Southeast  Level Estimated
12:17PM 24.7987 90.4480 149° Southeast  Level Estimated
12:18PM 24.6741 90.5310 149° Southeast  Level Estimated
12:19PM 24.5495 90.6139 149° Southeast  Level Estimated
12:20PM 24.4248 90.6967 149° Southeast  Level Estimated
12:21PM 24.3001 90.7793 149° Southeast  Level Estimated
12:22PM 24.1753 90.8617 149° Southeast  Level Estimated
12:23PM 24.0505 90.9440 149° Southeast  Level Estimated
12:24PM 23.9256 91.0261 149° Southeast  Level Estimated
12:25PM 23.8007 91.1080 149° Southeast  Level Estimated
12:26PM 23.6758 91.1898 149° Southeast  Level Estimated
12:27PM 23.5508 91.2714 149° Southeast  Level Estimated
12:28PM 23.4258 91.3529 149° Southeast  Level Estimated
12:29PM 23.3007 91.4342 149° Southeast  Level Estimated
12:30PM 23.1756 91.5154 149° Southeast  Level Estimated
12:31PM 23.0504 91.5964 149° Southeast  Level Estimated
12:32PM 22.9252 91.6773 149° Southeast  Level Estimated
12:33PM 22.8000 91.7580 149° Southeast  Level Estimated
12:34PM 22.6747 91.8386 149° Southeast  Level Estimated
12:35PM 22.5494 91.9190 149° Southeast  Level Estimated
12:36PM 22.4240 91.9993 149° Southeast  Level Estimated
12:37PM 22.2986 92.0794 149° Southeast  Level Estimated
12:38PM 22.1732 92.1594 149° Southeast  Level Estimated
12:39PM 22.0477 92.2392 149° Southeast  Level Estimated
12:40PM 21.9222 92.3189 149° Southeast  Level Estimated
12:41PM 21.7966 92.3985 150° Southeast  Level Estimated
12:42PM 21.6711 92.4779 150° Southeast  Level Estimated
12:43PM 21.5454 92.5572 150° Southeast  Level Estimated
12:44PM 21.4198 92.6363 150° Southeast  Level Estimated
12:45PM 21.2941 92.7153 150° Southeast  Level Estimated
12:46PM 21.1683 92.7942 150° Southeast  Level Estimated
12:47PM 21.0425 92.8730 150° Southeast  Level Estimated
12:48PM 20.9167 92.9516 150° Southeast  Level Estimated
12:49PM 20.7909 93.0301 150° Southeast  Level Estimated
12:50PM 20.6650 93.1084 150° Southeast  Level Estimated
12:51PM 20.5391 93.1866 150° Southeast  Level Estimated
12:52PM 20.4131 93.2647 150° Southeast  Level Estimated
12:53PM 20.2871 93.3427 150° Southeast  Level Estimated
12:54PM 20.1611 93.4205 150° Southeast  Level Estimated
12:55PM 20.0351 93.4982 150° Southeast  Level Estimated
12:56PM 19.9090 93.5758 150° Southeast  Level Estimated
12:57PM 19.7829 93.6533 150° Southeast  Level Estimated
12:58PM 19.6567 93.7306 150° Southeast  Level Estimated
12:59PM 19.5305 93.8078 150° Southeast  Level Estimated
01:00PM 19.4043 93.8849 150° Southeast  Level Estimated
01:01PM 19.2780 93.9619 150° Southeast  Level Estimated
01:02PM 19.1517 94.0388 150° Southeast  Level Estimated
01:03PM 19.0254 94.1155 150° Southeast  Level Estimated
01:04PM 18.8991 94.1921 150° Southeast  Level Estimated
01:05PM 18.7727 94.2686 150° Southeast  Level Estimated
01:06PM 18.6463 94.3450 150° Southeast  Level Estimated
01:07PM 18.5198 94.4213 150° Southeast  Level Estimated
01:08PM 18.3934 94.4975 150° Southeast  Level Estimated
01:09PM 18.2668 94.5735 150° Southeast  Level Estimated
01:10PM 18.1403 94.6495 150° Southeast  Level Estimated
01:11PM 18.0137 94.7253 150° Southeast  Level Estimated
01:12PM 17.8871 94.8010 150° Southeast  Level Estimated
01:13PM 17.7605 94.8766 150° Southeast  Level Estimated
01:14PM 17.6339 94.9521 150° Southeast  Level Estimated
01:15PM 17.5072 95.0275 150° Southeast  Level Estimated
01:16PM 17.3805 95.1029 150° Southeast  Level Estimated
01:17PM 17.2537 95.1780 150° Southeast  Level Estimated
01:18PM 17.1270 95.2531 150° Southeast  Level Estimated
01:19PM 17.0002 95.3281 151° Southeast  Level Estimated
01:20PM 16.8734 95.4030 151° Southeast  Level Estimated
01:21PM 16.7465 95.4778 151° Southeast  Level Estimated
01:22PM 16.6196 95.5525 151° Southeast  Level Estimated
01:23PM 16.4927 95.6271 151° Southeast  Level Estimated
01:24PM 16.3658 95.7016 151° Southeast  Level Estimated
01:25PM 16.2388 95.7760 151° Southeast  Level Estimated
01:26PM 16.1119 95.8503 151° Southeast  Level Estimated
01:27PM 15.9849 95.9245 151° Southeast  Level Estimated
01:28PM 15.8578 95.9986 151° Southeast  Level Estimated
01:29PM 15.7308 96.0726 151° Southeast  Level Estimated
01:30PM 15.6037 96.1465 151° Southeast  Level Estimated
01:31PM 15.4766 96.2204 151° Southeast  Level Estimated
01:32PM 15.3495 96.2941 151° Southeast  Level Estimated
01:33PM 15.2223 96.3677 151° Southeast  Level Estimated
01:34PM 15.0951 96.4413 151° Southeast  Level Estimated
01:35PM 14.9679 96.5148 151° Southeast  Level Estimated
01:36PM 14.8407 96.5882 151° Southeast  Level Estimated
01:37PM 14.7134 96.6615 151° Southeast  Level Estimated
01:38PM 14.5862 96.7347 151° Southeast  Level Estimated
01:39PM 14.4589 96.8078 151° Southeast  Level Estimated
01:40PM 14.3315 96.8809 151° Southeast  Level Estimated
01:41PM 14.2042 96.9538 151° Southeast  Level Estimated
01:42PM 14.0768 97.0267 151° Southeast  Level Estimated
01:43PM 13.9495 97.0995 151° Southeast  Level Estimated
01:44PM 13.8221 97.1722 151° Southeast  Level Estimated
01:45PM 13.6946 97.2449 151° Southeast  Level Estimated
01:46PM 13.5672 97.3174 151° Southeast  Level Estimated
01:47PM 13.4397 97.3899 151° Southeast  Level Estimated
01:48PM 13.3122 97.4623 151° Southeast  Level Estimated
01:49PM 13.1847 97.5347 151° Southeast  Level Estimated
01:50PM 13.0572 97.6069 151° Southeast  Level Estimated
01:51PM 12.9296 97.6791 151° Southeast  Level Estimated
01:52PM 12.8021 97.7512 151° Southeast  Level Estimated
01:53PM 12.6745 97.8232 151° Southeast  Level Estimated
01:54PM 12.5469 97.8952 151° Southeast  Level Estimated
01:55PM 12.4192 97.9671 151° Southeast  Level Estimated
01:56PM 12.2916 98.0389 151° Southeast  Level Estimated
01:57PM 12.1639 98.1107 151° Southeast  Level Estimated
01:58PM 12.0362 98.1823 151° Southeast  Level Estimated
01:59PM 11.9085 98.2540 151° Southeast  Level Estimated
02:00PM 11.7808 98.3255 151° Southeast  Level Estimated
02:01PM 11.6531 98.3970 151° Southeast  Level Estimated
02:02PM 11.5253 98.4684 151° Southeast  Level Estimated
02:03PM 11.3975 98.5397 151° Southeast  Level Estimated
02:04PM 11.2697 98.6110 151° Southeast  Level Estimated
02:05PM 11.1419 98.6823 151° Southeast  Level Estimated
02:06PM 11.0141 98.7534 151° Southeast  Level Estimated
02:07PM 10.8863 98.8245 151° Southeast  Level Estimated
02:08PM 10.7584 98.8956 151° Southeast  Level Estimated
02:09PM 10.6306 98.9665 151° Southeast  Level Estimated
02:10PM 10.5027 99.0375 151° Southeast  Level Estimated
02:11PM 10.3748 99.1083 151° Southeast  Level Estimated
02:12PM 10.2468 99.1791 151° Southeast  Level Estimated
02:13PM 10.1189 99.2499 151° Southeast  Level Estimated
02:14PM 9.9909 99.3205 151° Southeast  Level Estimated
02:15PM 9.8630 99.3912 151° Southeast  Level Estimated
02:16PM 9.7350 99.4618 151° Southeast  Level Estimated
02:17PM 9.6070 99.5323 151° Southeast  Level Estimated
02:18PM 9.4790 99.6028 151° Southeast  Level Estimated
02:19PM 9.3510 99.6732 152° Southeast  Level Estimated
02:20PM 9.2229 99.7435 152° Southeast  Level Estimated
02:21PM 9.0949 99.8139 152° Southeast  Level Estimated
02:22PM 8.9668 99.8841 152° Southeast  Level Estimated
02:23PM 8.8387 99.9543 152° Southeast  Level Estimated
02:24PM 8.7106 100.0245 152° Southeast  Level Estimated
02:25PM 8.5825 100.0946 152° Southeast  Level Estimated
02:26PM 8.4544 100.1647 152° Southeast  Level Estimated
02:27PM 8.3263 100.2347 152° Southeast  Level Estimated
02:28PM 8.1981 100.3047 152° Southeast  Level Estimated
02:29PM 8.0700 100.3746 152° Southeast  Level Estimated
02:30PM 7.9418 100.4445 152° Southeast  Level Estimated
02:31PM 7.8137 100.5144 152° Southeast  Level Estimated
02:32PM 7.6855 100.5842 152° Southeast  Level Estimated
02:33PM 7.5573 100.6539 152° Southeast  Level Estimated
02:34PM 7.4291 100.7236 152° Southeast  Level Estimated
02:35PM 7.3008 100.7933 152° Southeast  Level Estimated
02:36PM 7.1726 100.8630 152° Southeast  Level Estimated
02:37PM 7.0444 100.9325 152° Southeast  Level Estimated
02:38PM 6.9161 101.0021 152° Southeast  Level Estimated
02:39PM 6.7879 101.0716 152° Southeast  Level Estimated
02:40PM 6.6596 101.1411 152° Southeast  Level Estimated
02:41PM 6.5313 101.2106 152° Southeast  Level Estimated
02:42PM 6.4030 101.2800 152° Southeast  Level Estimated
02:43PM 6.2747 101.3494 152° Southeast  Level Estimated
02:44PM 6.1464 101.4187 152° Southeast  Level Estimated
02:45PM 6.0181 101.4880 152° Southeast  Level Estimated
02:46PM 5.8898 101.5573 152° Southeast  Level Estimated
02:47PM 5.7614 101.6265 152° Southeast  Level Estimated
02:48PM 5.6331 101.6957 152° Southeast  Level Estimated
02:49PM 5.5047 101.7649 152° Southeast  Level Estimated
02:50PM 5.3764 101.8341 152° Southeast  Level Estimated
02:51PM 5.2480 101.9032 152° Southeast  Level Estimated
02:52PM 5.1196 101.9723 152° Southeast  Level Estimated
02:53PM 4.9912 102.0414 152° Southeast  Level Estimated
02:54PM 4.8628 102.1104 152° Southeast  Level Estimated
02:55PM 4.7344 102.1794 152° Southeast  Level Estimated
02:56PM 4.6060 102.2484 152° Southeast  Level Estimated
02:57PM 4.4776 102.3174 152° Southeast  Level Estimated
02:58PM 4.3492 102.3863 152° Southeast  Level Estimated
02:59PM 4.2208 102.4553 152° Southeast  Level Estimated
03:00PM 4.0924 102.5241 152° Southeast  Level Estimated
03:01PM 3.9639 102.5930 152° Southeast  Level Estimated
03:02PM 3.8355 102.6619 152° Southeast  Level Estimated
03:03PM 3.7070 102.7307 152° Southeast  Level Estimated
03:04PM 3.5786 102.7995 152° Southeast  Level Estimated
03:05PM 3.4501 102.8683 152° Southeast  Level Estimated
03:06PM 3.3217 102.9371 152° Southeast  Level Estimated
03:07PM 3.1932 103.0058 152° Southeast  Level Estimated
03:08PM 3.0647 103.0746 152° Southeast  Level Estimated
03:09PM 2.9362 103.1433 152° Southeast  Level Estimated
03:10PM 2.8077 103.2120 152° Southeast  Level Estimated
03:11PM 2.6793 103.2807 152° Southeast  Level Estimated
03:12PM 2.5508 103.3494 152° Southeast  Level Estimated
03:13PM 2.4223 103.4180 152° Southeast  Level Estimated
03:14PM 2.2938 103.4867 152° Southeast  Level Estimated
03:15PM 2.1653 103.5553 152° Southeast  Level Estimated
03:16PM 2.0368 103.6239 152° Southeast  Level Estimated
03:17PM 1.9083 103.6925 152° Southeast  Level Estimated
03:18PM 1.7798 103.7611 152° Southeast  Level Estimated
03:19PM 1.6513 103.8297 152° Southeast  Level Estimated
03:20PM 1.5228 103.8983 152° Southeast  Level Estimated
03:21PM 1.3942 103.9669 152° Southeast  Level Estimated
03:22PM 1.3557 103.9875 152° Southeast  Level Estimated
03:23PM 1.3557 103.9875 214° Southwest  Level Estimated
03:24PM 1.3557 103.9875 214° Southwest  Level Estimated
03:25PM 1.3557 103.9875 214° Southwest  Level Estimated
03:26PM 1.3557 103.9875 214° Southwest  Level Estimated
03:27PM 1.3557 103.9875 214° Southwest  Level Estimated
03:28PM 1.3557 103.9875 214° Southwest  Level Estimated
03:29PM 1.3557 103.9875 214° Southwest  Level Estimated
03:30PM 1.3557 103.9875 214° Southwest  Level Estimated
03:31PM 1.3557 103.9875 214° Southwest  Level Estimated
03:32PM 1.3557 103.9875 214° Southwest  Level Estimated
03:33PM 1.3557 103.9875 214° Southwest  Level Estimated
03:34PM 1.3557 103.9875 214° Southwest  Level Estimated
03:35PM 1.3557 103.9875 214° Southwest  Level Estimated
03:36PM 1.3557 103.9875 214° Southwest  Level Estimated
03:37PM 1.3557 103.9875 214° Southwest  Level Estimated
03:38PM 1.3557 103.9875 214° Southwest  Level Estimated
03:39PM 1.3557 103.9875 214° Southwest  Level Estimated
03:40PM 1.3557 103.9875 214° Southwest  Level Estimated
03:41PM 1.3557 103.9875 214° Southwest  Level Estimated
03:42PM 1.3557 103.9875 214° Southwest  Level Estimated
03:43PM 1.3557 103.9875 214° Southwest  Level Estimated
03:44PM 1.3557 103.9875 214° Southwest  Level Estimated
03:45PM 1.3557 103.9875 214° Southwest  Level Estimated
03:46PM 1.3557 103.9875 214° Southwest  Level Estimated
03:47PM 1.3557 103.9875 214° Southwest  Level Estimated
03:48PM 1.3557 103.9875 214° Southwest  Level Estimated
03:49PM 1.3557 103.9875 214° Southwest  Level Estimated
03:50PM 1.3557 103.9875 214° Southwest  Level Estimated
03:51PM 1.3557 103.9875 214° Southwest  Level Estimated
03:52PM 1.3557 103.9875 214° Southwest  Level Estimated
03:53PM 1.3557 103.9875 214° Southwest  Level Estimated
03:54PM 1.3557 103.9875 214° Southwest  Level Estimated
03:55PM 1.3557 103.9875 214° Southwest  Level Estimated
03:56PM 1.3557 103.9875 214° Southwest  Level Estimated
03:57PM 1.3557 103.9875 214° Southwest  Level Estimated
03:58PM 1.3557 103.9875 214° Southwest  Level Estimated
03:59PM 1.3557 103.9875 214° Southwest  Level Estimated
04:00PM 1.3557 103.9875 214° Southwest  Level Estimated
04:01PM 1.3557 103.9875 214° Southwest  Level Estimated
04:02PM 1.3557 103.9875 214° Southwest  Level Estimated
04:03PM 1.3557 103.9875 214° Southwest  Level Estimated
04:04PM 1.3557 103.9875 214° Southwest  Level Estimated
04:05PM 1.3557 103.9875 214° Southwest  Level Estimated
04:06PM 1.3557 103.9875 214° Southwest  Level Estimated
04:07PM 1.3557 103.9875 214° Southwest  Level Estimated
04:08PM 1.3557 103.9875 214° Southwest  Level Estimated
04:09PM 1.3557 103.9875 214° Southwest  Level Estimated
04:10PM 1.3557 103.9875 214° Southwest  Level Estimated
04:11PM 1.3557 103.9875 214° Southwest  Level Estimated
04:12PM 1.3557 103.9875 214° Southwest  Level Estimated
04:13PM 1.3557 103.9875 214° Southwest  Level Estimated
04:14PM 1.3557 103.9875 214° Southwest  Level Estimated
04:15PM 1.3557 103.9875 214° Southwest  Level Estimated
04:16PM 1.3557 103.9875 214° Southwest  Level Estimated
04:16PM 1.3930 103.2660 214° Southwest 340 391 18,600  Level FlightAware
04:17PM 1.3557 103.9875 214° Southwest  Level Estimated
04:17PM 1.3560 103.3080 131° Southeast 338 389 17,200  Level FlightAware
04:17PM 1.3270 103.3570 121° Southeast 339 390 15,800 -2,760 Descending FlightAware
04:18PM 1.2780 103.4380 121° Southeast 336 387 12,800 -3,000 Descending FlightAware
04:19PM 1.2360 103.5110 120° Southeast 334 384 10,000 -2,460 Descending FlightAware
04:20PM 1.2150 103.5480 120° Southeast 324 373 9,500 -900 Descending FlightAware
04:20PM 1.2000 103.5760 118° Southeast 310 357 9,300 -900 Descending FlightAware
04:21PM 1.1790 103.6140 119° Southeast 293 337 8,700 -1,440 Descending FlightAware
04:21PM 1.1650 103.6390 119° Southeast 290 334 8,000 -1,620 Descending FlightAware
04:22PM 1.1380 103.6870 119° Southeast 282 325 7,000 -1,380 Descending FlightAware
04:22PM 1.1150 103.7280 119° Southeast 262 302 6,300 -960 Descending FlightAware
04:23PM 1.1140 103.7680 91° East 231 266 5,800 -900 Descending FlightAware
04:24PM 1.1250 103.8010 72° East 220 253 5,300 -1,140 Descending FlightAware
04:24PM 1.1330 103.8250 72° East 212 244 4,700 -1,320 Descending FlightAware
04:24PM 1.1410 103.8480 71° East 209 241 4,100 -1,320 Descending FlightAware
04:25PM 1.1580 103.8740 57° Northeast 203 234 3,500 -1,020 Descending FlightAware
04:26PM 1.1800 103.9020 52° Northeast 189 217 3,000 -840 Descending FlightAware
04:26PM 1.2030 103.9160 31° Northeast 186 214 2,600 -600 Descending FlightAware
04:27PM 1.2240 103.9250 23° Northeast 167 192 2,400 -360 Descending FlightAware
04:27PM 1.2430 103.9330 23° Northeast 167 192 2,300 -600 Descending FlightAware
04:27PM 1.2600 103.9400 22° Northeast 153 176 1,900 -840 Descending FlightAware
04:28PM 1.2820 103.9490 22° Northeast 135 155 1,500 -720 Descending FlightAware
04:29PM 1.3010 103.9570 23° Northeast 136 157 1,100 -780 Descending FlightAware
04:29PM 1.3150 103.9630 23° Northeast 136 157 800 -720 Descending FlightAware
04:30PM 1.3360 103.9720 23° Northeast 138 159 400 -660 Descending FlightAware
04:30PM 1.3470 103.9770 24° Northeast 142 163 200 -720 Descending FlightAware
04:30PM 1.3600 103.9820 21° North 98 113 -540 Descending FlightAware
04:31PM 1.3700 103.9860 22° Northeast 98 113  Level FlightAware